Terminal Aerodrome Forecast
Issued by NWS Cleveland, OH

Home | Current Version | Previous Version | Text Only | Print | Product List | Glossary Off
Versions: 1 2 3 4 5 6 7 8 9 10 11 12 13 14 15

025
FTUS41 KCLE 241359 AAA
TAFCAK
TAF AMD
KCAK 241359Z 2414/2512 22018G28KT P6SM SCT060 BKN140
     FM242100 23015G25KT P6SM OVC250
     FM250300 23012KT P6SM OVC025
     FM250900 22007KT P6SM OVC035=

USA.gov is the U.S. government's official web portal to all federal, state and local government web resources and services.